Time;durP1;ratioP1;P1;durP2;ratioP2;P2;SDS_P1;SDS_P2;PMS_P1;PMS_P2;Temp;Humidity;BMP_temperature;BMP_pressure;BME280_temperature;BME280_humidity;BME280_pressure;Samples;Min_cycle;Max_cycle;Signal;HPM_P1;HPM_P2
2022/08/23 00:01:01;;;;;;;10.38;6.07;;;;;;;;;;5048328;28;20051;-59
2022/08/23 00:03:27;;;;;;;7.40;5.03;;;;;;;;;;5032597;28;20125;-59
2022/08/23 00:05:53;;;;;;;9.55;5.53;;;;;;;;;;5033547;28;20475;-59
2022/08/23 00:08:19;;;;;;;8.55;5.13;;;;;;;;;;5033437;28;20107;-59
2022/08/23 00:10:45;;;;;;;8.43;5.50;;;;;;;;;;5033109;28;20042;-58
2022/08/23 00:13:11;;;;;;;10.18;5.60;;;;;;;;;;5033627;28;20048;-59
2022/08/23 00:15:37;;;;;;;10.50;5.60;;;;;;;;;;5032858;28;20041;-59
2022/08/23 00:18:03;;;;;;;9.63;5.25;;;;;;;;;;5033158;28;20148;-59
2022/08/23 00:20:29;;;;;;;8.93;5.18;;;;;;;;;;5033315;28;20068;-59
2022/08/23 00:22:56;;;;;;;11.70;6.10;;;;;;;;;;5015673;28;20045;-59
2022/08/23 00:25:22;;;;;;;9.10;5.07;;;;;;;;;;5033042;28;20443;-59
2022/08/23 00:27:48;;;;;;;9.60;5.57;;;;;;;;;;5033232;28;20058;-59
2022/08/23 00:30:15;;;;;;;11.65;5.30;;;;;;;;;;5033592;28;20566;-59
2022/08/23 00:32:42;;;;;;;11.40;5.28;;;;;;;;;;5033105;28;20059;-59
2022/08/23 00:35:09;;;;;;;8.90;5.32;;;;;;;;;;5033043;28;20124;-59
2022/08/23 00:37:37;;;;;;;10.60;5.05;;;;;;;;;;5032474;28;20053;-59
2022/08/23 00:40:04;;;;;;;10.68;5.55;;;;;;;;;;5032938;28;20101;-59
2022/08/23 00:48:21;;;;;;;10.30;5.65;;;;;;;;;;5032826;28;20076;-59
2022/08/23 00:50:50;;;;;;;8.18;5.30;;;;;;;;;;5033071;28;20029;-59
2022/08/23 00:53:21;;;;;;;7.97;5.50;;;;;;;;;;5033067;28;20415;-59
2022/08/23 00:55:49;;;;;;;12.65;6.90;;;;;;;;;;5032630;28;20120;-59
2022/08/23 00:58:17;;;;;;;10.85;5.82;;;;;;;;;;5033386;28;20041;-59
2022/08/23 01:00:43;;;;;;;9.07;5.72;;;;;;;;;;5047262;28;20033;-59
2022/08/23 01:03:10;;;;;;;12.73;5.55;;;;;;;;;;5033747;28;20120;-59
2022/08/23 01:05:51;;;;;;;8.35;5.13;;;;;;;;;;5033269;28;20524;-59
2022/08/23 01:08:17;;;;;;;12.25;6.13;;;;;;;;;;5032905;28;20132;-59
2022/08/23 01:10:46;;;;;;;10.65;5.55;;;;;;;;;;5032630;28;20033;-59
2022/08/23 01:13:28;;;;;;;7.03;5.72;;;;;;;;;;5033274;28;20041;-58
2022/08/23 01:16:00;;;;;;;12.30;5.80;;;;;;;;;;5032977;28;20053;-59
2022/08/23 01:18:27;;;;;;;11.33;5.70;;;;;;;;;;5032468;28;20050;-59
2022/08/23 01:21:04;;;;;;;10.82;5.88;;;;;;;;;;5033280;28;20323;-59
2022/08/23 01:23:32;;;;;;;14.80;6.20;;;;;;;;;;5033327;28;20048;-59
2022/08/23 01:25:59;;;;;;;8.82;6.13;;;;;;;;;;5034700;28;20061;-59
2022/08/23 01:28:25;;;;;;;8.88;6.22;;;;;;;;;;5037319;28;20084;-59
2022/08/23 01:30:51;;;;;;;12.15;6.40;;;;;;;;;;5037342;28;20049;-58
2022/08/23 01:33:18;;;;;;;8.73;5.63;;;;;;;;;;5036783;28;20041;-59
2022/08/23 01:35:47;;;;;;;11.52;6.00;;;;;;;;;;5037110;28;20077;-59
2022/08/23 01:38:13;;;;;;;10.70;6.75;;;;;;;;;;5037306;28;20042;-59
2022/08/23 01:40:40;;;;;;;9.82;6.55;;;;;;;;;;5036878;28;20048;-59
2022/08/23 01:43:08;;;;;;;13.50;6.28;;;;;;;;;;5037329;28;20057;-59
2022/08/23 01:45:35;;;;;;;10.35;6.07;;;;;;;;;;5037643;28;20047;-58
2022/08/23 01:48:01;;;;;;;9.50;5.55;;;;;;;;;;5036240;28;20570;-59
2022/08/23 01:50:28;;;;;;;8.30;5.97;;;;;;;;;;5037054;28;20094;-59
2022/08/23 01:52:54;;;;;;;9.95;6.63;;;;;;;;;;5037100;28;20129;-59
2022/08/23 01:55:21;;;;;;;12.07;6.70;;;;;;;;;;5037003;28;20456;-59
2022/08/23 01:57:48;;;;;;;13.38;6.30;;;;;;;;;;5037145;28;20483;-59
2022/08/23 02:00:14;;;;;;;10.52;6.50;;;;;;;;;;5037155;28;20055;-59
2022/08/23 02:02:41;;;;;;;12.27;6.50;;;;;;;;;;5051949;28;20094;-59
2022/08/23 02:05:08;;;;;;;10.77;7.13;;;;;;;;;;5057216;28;20056;-59
2022/08/23 02:07:34;;;;;;;11.98;7.15;;;;;;;;;;5056889;28;20057;-59
2022/08/23 02:10:01;;;;;;;10.70;6.65;;;;;;;;;;5057128;28;20402;-59
2022/08/23 02:12:27;;;;;;;8.48;6.53;;;;;;;;;;5056961;28;20121;-59
2022/08/23 02:14:53;;;;;;;10.80;6.35;;;;;;;;;;5057258;28;20037;-58
2022/08/23 02:17:19;;;;;;;11.15;6.65;;;;;;;;;;5056248;28;20037;-59
2022/08/23 02:19:45;;;;;;;10.68;6.88;;;;;;;;;;5056261;28;20041;-59
2022/08/23 02:22:11;;;;;;;10.90;6.95;;;;;;;;;;5056657;28;20633;-59
2022/08/23 02:24:42;;;;;;;13.60;6.72;;;;;;;;;;5056219;28;20036;-59
2022/08/23 02:27:08;;;;;;;15.10;7.18;;;;;;;;;;5057037;28;20062;-59
2022/08/23 02:29:35;;;;;;;8.68;6.90;;;;;;;;;;5057085;28;20041;-59
2022/08/23 02:32:02;;;;;;;8.30;6.90;;;;;;;;;;5056716;28;20133;-59
2022/08/23 02:34:30;;;;;;;8.30;6.47;;;;;;;;;;5056975;28;20067;-59
2022/08/23 02:36:56;;;;;;;13.15;6.82;;;;;;;;;;5056253;28;20068;-59
2022/08/23 02:39:22;;;;;;;10.40;7.55;;;;;;;;;;5056378;28;20041;-59
2022/08/23 02:41:48;;;;;;;11.10;6.38;;;;;;;;;;5056709;28;20384;-59
2022/08/23 02:44:15;;;;;;;11.25;6.90;;;;;;;;;;5056896;28;20085;-58
2022/08/23 02:46:42;;;;;;;9.82;6.70;;;;;;;;;;5055771;28;20045;-59
2022/08/23 02:49:08;;;;;;;8.40;6.57;;;;;;;;;;5056872;28;20041;-59
2022/08/23 02:51:34;;;;;;;10.73;7.68;;;;;;;;;;5056619;28;20052;-59
2022/08/23 02:54:00;;;;;;;9.02;6.75;;;;;;;;;;5056155;28;20083;-59
2022/08/23 02:56:26;;;;;;;8.60;6.85;;;;;;;;;;5056719;28;20045;-59
2022/08/23 02:58:52;;;;;;;9.40;6.85;;;;;;;;;;5056031;28;20090;-59
2022/08/23 03:01:24;;;;;;;10.02;6.88;;;;;;;;;;5041238;28;20032;-59
2022/08/23 03:03:50;;;;;;;10.87;7.37;;;;;;;;;;5056632;28;20481;-59
2022/08/23 03:06:16;;;;;;;9.07;7.57;;;;;;;;;;5056661;28;20032;-59
2022/08/23 03:08:43;;;;;;;8.32;7.22;;;;;;;;;;5056260;28;20110;-59
2022/08/23 03:11:13;;;;;;;9.48;7.68;;;;;;;;;;5056456;28;20379;-59
2022/08/23 03:13:40;;;;;;;10.45;7.47;;;;;;;;;;5056728;28;20094;-59
2022/08/23 03:16:07;;;;;;;8.02;7.22;;;;;;;;;;5055850;28;20044;-59
2022/08/23 03:18:34;;;;;;;10.52;6.82;;;;;;;;;;5056243;28;20041;-59
2022/08/23 03:21:00;;;;;;;9.63;7.00;;;;;;;;;;5055622;28;20123;-59
2022/08/23 03:23:26;;;;;;;10.07;7.68;;;;;;;;;;5055475;28;20080;-59
2022/08/23 03:25:52;;;;;;;11.93;7.90;;;;;;;;;;5038433;28;20041;-59
2022/08/23 03:28:19;;;;;;;9.18;8.10;;;;;;;;;;5055658;28;20041;-59
2022/08/23 03:30:45;;;;;;;11.05;8.23;;;;;;;;;;5054944;28;20087;-59
2022/08/23 03:33:12;;;;;;;12.15;8.25;;;;;;;;;;5056267;28;20098;-59
2022/08/23 03:35:38;;;;;;;13.18;8.20;;;;;;;;;;5056093;28;20041;-59
2022/08/23 03:38:04;;;;;;;12.88;8.77;;;;;;;;;;5055059;28;20511;-59
2022/08/23 03:40:30;;;;;;;10.27;8.15;;;;;;;;;;5056420;28;20041;-59
2022/08/23 03:42:56;;;;;;;8.60;7.68;;;;;;;;;;5055547;28;20041;-59
2022/08/23 03:45:23;;;;;;;10.52;7.53;;;;;;;;;;5055828;28;20041;-59
2022/08/23 03:47:50;;;;;;;9.93;7.78;;;;;;;;;;5037622;28;20090;-59
2022/08/23 03:50:16;;;;;;;10.40;7.53;;;;;;;;;;5054640;28;20447;-59
2022/08/23 03:52:42;;;;;;;10.85;7.72;;;;;;;;;;5037358;28;20049;-59
2022/08/23 03:55:08;;;;;;;14.32;8.30;;;;;;;;;;5054709;28;20039;-59
2022/08/23 03:57:34;;;;;;;15.07;9.20;;;;;;;;;;5054603;28;20434;-59
2022/08/23 04:00:00;;;;;;;10.45;8.50;;;;;;;;;;5046903;28;20116;-59
2022/08/23 04:02:26;;;;;;;12.30;9.15;;;;;;;;;;5048202;28;20116;-59
2022/08/23 04:04:53;;;;;;;11.88;10.20;;;;;;;;;;5054871;28;20037;-59
2022/08/23 04:07:20;;;;;;;12.65;9.18;;;;;;;;;;5054412;28;20427;-59
2022/08/23 04:09:46;;;;;;;13.70;10.52;;;;;;;;;;5055321;28;20048;-59
2022/08/23 04:12:12;;;;;;;14.63;10.20;;;;;;;;;;5055475;28;20041;-59
2022/08/23 04:14:38;;;;;;;14.07;8.98;;;;;;;;;;5055264;28;20371;-59
2022/08/23 04:17:04;;;;;;;10.30;9.20;;;;;;;;;;5055058;28;20044;-59
2022/08/23 04:19:30;;;;;;;10.05;8.32;;;;;;;;;;5054906;28;20041;-59
2022/08/23 04:21:56;;;;;;;11.77;8.82;;;;;;;;;;5054228;28;20048;-59
2022/08/23 04:24:23;;;;;;;10.30;8.50;;;;;;;;;;5055192;28;20037;-59
2022/08/23 04:26:50;;;;;;;10.45;9.07;;;;;;;;;;5055060;28;20041;-59
2022/08/23 04:29:16;;;;;;;9.55;7.90;;;;;;;;;;5054573;28;20039;-59
2022/08/23 04:31:43;;;;;;;11.45;8.70;;;;;;;;;;5055210;28;20041;-59
2022/08/23 04:34:10;;;;;;;11.63;8.90;;;;;;;;;;5055591;28;20080;-59
2022/08/23 04:36:37;;;;;;;10.82;9.10;;;;;;;;;;5055104;28;20041;-59
2022/08/23 04:39:04;;;;;;;14.38;10.30;;;;;;;;;;5054903;28;20041;-59
2022/08/23 04:44:15;;;;;;;12.23;9.43;;;;;;;;;;5054533;28;20049;-59
2022/08/23 04:46:42;;;;;;;12.43;9.48;;;;;;;;;;5054832;28;20052;-59
2022/08/23 04:49:09;;;;;;;12.52;10.20;;;;;;;;;;5054773;28;20052;-58
2022/08/23 04:51:35;;;;;;;12.75;9.60;;;;;;;;;;5054078;28;20029;-59
2022/08/23 04:54:01;;;;;;;11.70;10.13;;;;;;;;;;5054129;28;20468;-59
2022/08/23 04:56:27;;;;;;;12.10;9.82;;;;;;;;;;5054789;28;20422;-59
2022/08/23 04:58:53;;;;;;;12.85;10.15;;;;;;;;;;5053747;28;20079;-58
2022/08/23 05:01:19;;;;;;;14.02;11.00;;;;;;;;;;5038511;28;20676;-58
2022/08/23 05:03:46;;;;;;;10.80;9.30;;;;;;;;;;5054464;28;20052;-59
2022/08/23 05:06:12;;;;;;;11.35;9.63;;;;;;;;;;5041838;28;20494;-59
2022/08/23 05:08:38;;;;;;;19.27;11.02;;;;;;;;;;5053449;28;20048;-59
2022/08/23 05:11:05;;;;;;;12.95;11.52;;;;;;;;;;5054598;28;20048;-59
2022/08/23 05:13:32;;;;;;;17.55;11.30;;;;;;;;;;5053064;28;20049;-59
2022/08/23 05:15:58;;;;;;;16.33;11.70;;;;;;;;;;5052960;28;20083;-59
2022/08/23 05:18:24;;;;;;;15.70;11.77;;;;;;;;;;5053584;28;20052;-59
2022/08/23 05:20:50;;;;;;;16.65;12.35;;;;;;;;;;5053154;28;20037;-59
2022/08/23 05:23:16;;;;;;;15.80;11.10;;;;;;;;;;5053348;28;20124;-59
2022/08/23 05:25:48;;;;;;;15.52;10.95;;;;;;;;;;5035965;28;20033;-59
2022/08/23 05:28:20;;;;;;;13.20;11.77;;;;;;;;;;5053959;28;20045;-59
2022/08/23 05:31:07;;;;;;;12.48;10.68;;;;;;;;;;5054280;28;20041;-59
2022/08/23 05:33:33;;;;;;;20.50;11.70;;;;;;;;;;5054281;28;20052;-59
2022/08/23 05:36:00;;;;;;;13.13;10.73;;;;;;;;;;5053334;28;20075;-59
2022/08/23 05:38:27;;;;;;;15.70;11.52;;;;;;;;;;5036096;28;20052;-59
2022/08/23 05:40:54;;;;;;;15.38;11.90;;;;;;;;;;5054159;28;20045;-59
2022/08/23 05:43:20;;;;;;;13.90;11.63;;;;;;;;;;5053803;28;20052;-59
2022/08/23 05:45:47;;;;;;;15.73;12.32;;;;;;;;;;5054321;28;20040;-59
2022/08/23 05:48:14;;;;;;;23.92;14.63;;;;;;;;;;5052965;28;20045;-59
2022/08/23 05:50:41;;;;;;;19.30;14.25;;;;;;;;;;5053626;28;20045;-59
2022/08/23 05:53:08;;;;;;;17.35;14.55;;;;;;;;;;5054033;28;20131;-59
2022/08/23 05:55:34;;;;;;;17.25;13.90;;;;;;;;;;5053579;28;20049;-59
2022/08/23 05:58:01;;;;;;;18.25;14.13;;;;;;;;;;5053337;28;20045;-59
2022/08/23 06:00:27;;;;;;;20.58;14.48;;;;;;;;;;5043250;28;20042;-59
2022/08/23 06:02:54;;;;;;;18.40;15.02;;;;;;;;;;5049503;28;20079;-59
2022/08/23 06:05:20;;;;;;;17.92;16.02;;;;;;;;;;5034020;28;20042;-59
2022/08/23 06:07:46;;;;;;;21.88;16.48;;;;;;;;;;5037226;28;20057;-59
2022/08/23 06:10:12;;;;;;;23.35;16.00;;;;;;;;;;5053107;28;20049;-61
2022/08/23 06:12:38;;;;;;;19.67;17.38;;;;;;;;;;5044370;28;20399;-61
2022/08/23 06:15:05;;;;;;;20.98;17.70;;;;;;;;;;5055392;28;20044;-61
2022/08/23 06:17:31;;;;;;;20.50;18.20;;;;;;;;;;5056285;28;20107;-60
2022/08/23 06:19:57;;;;;;;30.58;23.05;;;;;;;;;;5049167;28;20108;-61
2022/08/23 06:22:23;;;;;;;18.67;16.20;;;;;;;;;;5035974;28;20044;-61
2022/08/23 06:24:49;;;;;;;17.80;15.68;;;;;;;;;;5047396;28;20151;-61
2022/08/23 06:27:15;;;;;;;17.42;14.73;;;;;;;;;;5052876;28;20045;-62
2022/08/23 06:29:41;;;;;;;20.77;14.65;;;;;;;;;;5035620;28;20116;-62
2022/08/23 06:32:07;;;;;;;20.90;18.45;;;;;;;;;;5034032;28;20037;-62
2022/08/23 06:34:34;;;;;;;19.98;16.02;;;;;;;;;;5038157;28;20033;-61
2022/08/23 06:37:03;;;;;;;17.52;15.70;;;;;;;;;;5051747;28;20044;-61
2022/08/23 06:39:30;;;;;;;21.40;15.90;;;;;;;;;;5042328;28;20096;-61
2022/08/23 06:42:11;;;;;;;19.15;15.10;;;;;;;;;;5034540;28;20044;-62
2022/08/23 06:44:37;;;;;;;16.02;14.00;;;;;;;;;;5039888;28;20052;-62
2022/08/23 06:47:04;;;;;;;18.60;14.50;;;;;;;;;;5038434;28;20423;-62
2022/08/23 06:49:31;;;;;;;17.67;14.30;;;;;;;;;;5045666;28;20041;-62
2022/08/23 06:52:03;;;;;;;17.10;14.25;;;;;;;;;;5049356;28;20065;-62
2022/08/23 06:54:30;;;;;;;21.30;15.15;;;;;;;;;;5047699;28;20049;-62
2022/08/23 06:56:57;;;;;;;18.85;14.85;;;;;;;;;;5032589;28;20175;-62
2022/08/23 06:59:23;;;;;;;19.42;16.27;;;;;;;;;;5037670;28;20792;-61
2022/08/23 07:02:00;;;;;;;17.13;14.70;;;;;;;;;;5044406;28;20077;-62
2022/08/23 07:04:39;;;;;;;20.40;15.40;;;;;;;;;;5034235;28;20044;-61
2022/08/23 07:07:07;;;;;;;20.23;14.68;;;;;;;;;;5033160;28;20042;-61
2022/08/23 07:09:34;;;;;;;18.50;12.25;;;;;;;;;;5033345;28;20120;-61
2022/08/23 07:12:00;;;;;;;14.45;11.75;;;;;;;;;;5037522;28;20424;-61
2022/08/23 07:14:27;;;;;;;13.55;12.15;;;;;;;;;;5051469;28;20044;-62
2022/08/23 07:16:55;;;;;;;15.80;13.02;;;;;;;;;;5050046;28;20076;-62
2022/08/23 07:19:22;;;;;;;18.25;12.50;;;;;;;;;;5046674;28;20079;-62
2022/08/23 07:21:48;;;;;;;13.88;12.38;;;;;;;;;;5041484;28;20037;-62
2022/08/23 07:24:15;;;;;;;16.00;11.20;;;;;;;;;;5040950;28;20045;-63
2022/08/23 07:26:42;;;;;;;20.10;13.05;;;;;;;;;;5051963;28;20055;-62
2022/08/23 07:29:09;;;;;;;16.70;11.82;;;;;;;;;;5041424;28;20039;-62
2022/08/23 07:31:38;;;;;;;14.82;11.95;;;;;;;;;;5041052;28;20763;-63
2022/08/23 07:34:05;;;;;;;17.67;11.90;;;;;;;;;;5051405;28;20120;-62
2022/08/23 07:36:32;;;;;;;11.80;10.60;;;;;;;;;;5047889;28;20041;-62
2022/08/23 07:38:59;;;;;;;15.02;11.18;;;;;;;;;;5032382;28;20128;-62
2022/08/23 07:41:30;;;;;;;14.57;12.15;;;;;;;;;;5047816;28;20040;-61
2022/08/23 07:43:57;;;;;;;13.10;11.80;;;;;;;;;;5043127;28;20514;-62
2022/08/23 07:46:24;;;;;;;15.02;11.52;;;;;;;;;;5051760;28;20482;-62
2022/08/23 07:48:51;;;;;;;14.93;11.73;;;;;;;;;;5040469;28;20042;-62
2022/08/23 07:51:18;;;;;;;12.63;10.88;;;;;;;;;;5032200;28;20053;-62
2022/08/23 07:53:44;;;;;;;12.52;10.05;;;;;;;;;;5031371;28;20052;-61
2022/08/23 07:56:12;;;;;;;15.43;10.70;;;;;;;;;;5035231;28;20037;-61
2022/08/23 07:58:38;;;;;;;12.63;11.40;;;;;;;;;;5051391;28;20045;-61
2022/08/23 08:01:14;;;;;;;11.98;9.90;;;;;;;;;;5040125;28;20280;-62
2022/08/23 08:03:40;;;;;;;9.93;8.93;;;;;;;;;;5030353;28;20172;-62
2022/08/23 08:06:11;;;;;;;12.25;10.40;;;;;;;;;;5038503;28;20163;-62
2022/08/23 08:08:39;;;;;;;14.63;9.32;;;;;;;;;;5036618;28;20063;-62
2022/08/23 08:11:05;;;;;;;11.57;9.05;;;;;;;;;;5039355;28;20481;-61
2022/08/23 08:13:31;;;;;;;10.68;9.18;;;;;;;;;;5042427;28;20045;-62
2022/08/23 08:15:58;;;;;;;15.07;9.10;;;;;;;;;;5040705;28;20057;-62
2022/08/23 08:18:24;;;;;;;11.70;8.73;;;;;;;;;;5050810;28;20115;-62
2022/08/23 08:20:50;;;;;;;12.93;7.72;;;;;;;;;;5036537;28;20384;-62
2022/08/23 08:23:16;;;;;;;12.20;8.20;;;;;;;;;;5039121;28;20635;-62
2022/08/23 08:25:42;;;;;;;13.32;8.43;;;;;;;;;;5038388;28;20045;-64
2022/08/23 08:28:09;;;;;;;10.32;7.93;;;;;;;;;;5037012;28;20123;-62
2022/08/23 08:30:35;;;;;;;11.85;7.13;;;;;;;;;;5040895;28;20042;-63
2022/08/23 08:33:01;;;;;;;9.85;7.43;;;;;;;;;;5042043;28;20126;-63
2022/08/23 08:35:27;;;;;;;11.82;7.47;;;;;;;;;;5026556;28;20128;-62
2022/08/23 08:37:53;;;;;;;9.85;6.80;;;;;;;;;;5031851;28;20045;-62
2022/08/23 08:40:22;;;;;;;10.20;7.25;;;;;;;;;;5034069;28;20041;-61
2022/08/23 08:43:11;;;;;;;9.52;6.10;;;;;;;;;;5032828;28;20052;-63
2022/08/23 08:45:57;;;;;;;9.88;6.43;;;;;;;;;;5033689;28;20038;-63
2022/08/23 08:48:24;;;;;;;7.32;6.40;;;;;;;;;;5041987;28;20049;-62
2022/08/23 08:51:00;;;;;;;7.35;6.35;;;;;;;;;;5051620;28;20047;-63
2022/08/23 08:53:33;;;;;;;7.15;6.43;;;;;;;;;;5047766;28;20049;-63
2022/08/23 08:56:08;;;;;;;11.45;6.88;;;;;;;;;;5050983;28;20094;-61
2022/08/23 08:58:43;;;;;;;10.30;6.40;;;;;;;;;;5044409;28;20045;-62
2022/08/23 09:01:09;;;;;;;8.40;6.32;;;;;;;;;;5044040;28;20033;-61
2022/08/23 09:03:35;;;;;;;8.88;6.28;;;;;;;;;;5036491;28;20044;-62
2022/08/23 09:06:04;;;;;;;8.98;6.28;;;;;;;;;;5039586;28;20049;-61
2022/08/23 09:08:49;;;;;;;7.63;5.75;;;;;;;;;;5041372;28;20473;-62
2022/08/23 09:11:33;;;;;;;15.20;7.78;;;;;;;;;;5027475;28;20043;-62
2022/08/23 09:14:08;;;;;;;10.27;6.38;;;;;;;;;;5042080;28;20090;-62
2022/08/23 09:16:46;;;;;;;9.50;6.30;;;;;;;;;;5039089;28;20095;-62
2022/08/23 09:19:12;;;;;;;10.13;6.57;;;;;;;;;;5040058;28;20044;-64
2022/08/23 09:21:41;;;;;;;7.57;5.43;;;;;;;;;;5048963;28;20577;-64
2022/08/23 09:24:07;;;;;;;9.20;5.72;;;;;;;;;;5049454;28;20131;-64
2022/08/23 09:26:33;;;;;;;8.38;4.82;;;;;;;;;;5030730;28;20041;-63
2022/08/23 09:29:04;;;;;;;5.53;4.85;;;;;;;;;;5038542;28;20033;-61
2022/08/23 09:31:37;;;;;;;9.52;5.18;;;;;;;;;;5037108;28;20065;-62
2022/08/23 09:34:04;;;;;;;9.70;4.53;;;;;;;;;;5036228;28;20397;-61
2022/08/23 09:36:38;;;;;;;8.00;4.07;;;;;;;;;;5045084;28;20137;-63
2022/08/23 09:39:06;;;;;;;7.80;4.40;;;;;;;;;;5040572;28;20099;-63
2022/08/23 09:41:36;;;;;;;9.32;4.97;;;;;;;;;;5033778;28;20068;-61
2022/08/23 09:44:07;;;;;;;11.48;4.40;;;;;;;;;;5034431;28;20041;-62
2022/08/23 09:46:40;;;;;;;8.07;3.58;;;;;;;;;;5045022;28;20132;-63
2022/08/23 09:49:26;;;;;;;11.90;4.07;;;;;;;;;;5044508;28;20034;-60
2022/08/23 09:51:53;;;;;;;8.32;3.78;;;;;;;;;;5046453;28;20041;-62
2022/08/23 09:54:21;;;;;;;10.15;4.90;;;;;;;;;;5042577;28;20389;-62
2022/08/23 09:57:15;;;;;;;5.55;3.63;;;;;;;;;;5045263;28;20090;-62
2022/08/23 09:59:42;;;;;;;4.65;3.05;;;;;;;;;;5036847;28;20064;-63
2022/08/23 10:02:14;;;;;;;5.68;4.30;;;;;;;;;;5048988;28;20037;-63
2022/08/23 10:04:44;;;;;;;8.57;4.55;;;;;;;;;;5050969;28;20149;-63
2022/08/23 10:07:20;;;;;;;15.32;12.30;;;;;;;;;;5051304;28;20044;-62
2022/08/23 10:09:46;;;;;;;7.47;3.40;;;;;;;;;;5045482;28;20505;-61
2022/08/23 10:12:13;;;;;;;12.27;7.65;;;;;;;;;;5043919;28;20041;-61
2022/08/23 10:14:39;;;;;;;32.05;17.20;;;;;;;;;;5045531;28;20032;-61
2022/08/23 10:17:06;;;;;;;7.78;4.50;;;;;;;;;;5043534;28;20087;-60
2022/08/23 10:19:35;;;;;;;8.32;4.38;;;;;;;;;;5025471;28;20041;-61
2022/08/23 10:22:05;;;;;;;6.90;4.20;;;;;;;;;;5043111;28;20037;-61
2022/08/23 10:24:37;;;;;;;10.32;6.63;;;;;;;;;;5042350;28;20033;-61
2022/08/23 10:29:35;;;;;;;14.57;9.18;;;;;;;;;;5044098;28;20047;-62
2022/08/23 10:29:50;;;;;;;8.85;3.70;;;;;;;;;;5047454;28;20048;-62
2022/08/23 10:32:31;;;;;;;6.30;3.70;;;;;;;;;;5052767;28;20045;-62
2022/08/23 10:35:03;;;;;;;7.43;3.53;;;;;;;;;;5034422;28;20049;-62
2022/08/23 10:37:29;;;;;;;5.85;3.15;;;;;;;;;;5044737;28;20057;-62
2022/08/23 10:39:59;;;;;;;7.50;2.95;;;;;;;;;;5050588;28;20361;-62
2022/08/23 10:42:26;;;;;;;5.97;3.65;;;;;;;;;;5051027;28;20067;-62
2022/08/23 10:45:05;;;;;;;6.30;3.50;;;;;;;;;;5047048;28;20041;-62
2022/08/23 10:47:36;;;;;;;8.05;3.47;;;;;;;;;;5033891;28;20077;-62
2022/08/23 10:50:07;;;;;;;9.70;3.47;;;;;;;;;;5035326;28;20099;-62
2022/08/23 10:52:39;;;;;;;8.63;3.75;;;;;;;;;;5034155;28;20038;-62
2022/08/23 10:55:16;;;;;;;7.03;3.88;;;;;;;;;;5053829;28;20384;-62
2022/08/23 10:57:44;;;;;;;10.10;3.95;;;;;;;;;;5040275;28;20049;-62
2022/08/23 11:00:22;;;;;;;8.77;3.97;;;;;;;;;;5039682;28;20076;-61
2022/08/23 11:02:51;;;;;;;4.05;3.65;;;;;;;;;;5034248;28;20084;-63
2022/08/23 11:05:20;;;;;;;6.18;3.25;;;;;;;;;;5039708;28;20055;-66
2022/08/23 11:07:58;;;;;;;7.10;3.92;;;;;;;;;;5045506;28;20049;-64
2022/08/23 11:10:26;;;;;;;8.57;3.42;;;;;;;;;;5040931;28;20124;-65
2022/08/23 11:12:55;;;;;;;8.43;3.33;;;;;;;;;;5041953;28;20036;-64
2022/08/23 11:15:36;;;;;;;8.05;4.28;;;;;;;;;;5038350;28;20042;-64
2022/08/23 11:18:04;;;;;;;4.45;3.45;;;;;;;;;;5042876;28;20041;-64
2022/08/23 11:20:49;;;;;;;4.82;3.50;;;;;;;;;;5044482;28;20037;-64
2022/08/23 11:23:15;;;;;;;10.90;3.00;;;;;;;;;;5043095;28;20513;-64
2022/08/23 11:25:42;;;;;;;6.45;2.70;;;;;;;;;;5040891;28;20342;-65
2022/08/23 11:28:27;;;;;;;5.05;2.72;;;;;;;;;;5044284;28;20041;-65
2022/08/23 11:30:58;;;;;;;6.65;2.60;;;;;;;;;;5041654;28;20033;-65
2022/08/23 11:33:26;;;;;;;6.38;3.20;;;;;;;;;;5040570;28;20049;-65
2022/08/23 11:36:15;;;;;;;6.18;2.88;;;;;;;;;;5034179;28;20083;-67
2022/08/23 11:38:47;;;;;;;11.23;2.70;;;;;;;;;;5049778;28;20060;-65
2022/08/23 11:41:19;;;;;;;5.90;2.97;;;;;;;;;;5044590;28;20047;-65
2022/08/23 11:43:54;;;;;;;5.32;3.28;;;;;;;;;;5051783;28;20048;-65
2022/08/23 11:46:20;;;;;;;6.40;2.95;;;;;;;;;;5049037;28;20068;-66
2022/08/23 11:48:54;;;;;;;6.75;2.80;;;;;;;;;;5050348;28;20447;-67
2022/08/23 11:51:39;;;;;;;8.85;3.10;;;;;;;;;;5025453;28;20041;-67
2022/08/23 11:54:08;;;;;;;8.77;4.22;;;;;;;;;;5037625;28;20095;-65
2022/08/23 11:56:34;;;;;;;10.80;4.50;;;;;;;;;;5037962;28;20041;-66
2022/08/23 11:59:06;;;;;;;6.72;2.85;;;;;;;;;;5017359;28;20057;-66
2022/08/23 12:01:38;;;;;;;10.13;4.38;;;;;;;;;;5041090;28;20610;-66
2022/08/23 12:04:36;;;;;;;7.15;3.20;;;;;;;;;;5041938;28;20045;-65
2022/08/23 12:07:10;;;;;;;9.23;3.13;;;;;;;;;;4992683;28;20057;-65
2022/08/23 12:09:39;;;;;;;6.80;2.95;;;;;;;;;;5039369;28;20045;-65
2022/08/23 12:12:10;;;;;;;5.90;2.95;;;;;;;;;;5032654;28;20042;-64
2022/08/23 12:14:40;;;;;;;5.47;2.78;;;;;;;;;;5039648;28;20049;-65
2022/08/23 12:17:24;;;;;;;6.63;3.00;;;;;;;;;;5009462;28;20044;-64
2022/08/23 12:19:57;;;;;;;6.50;2.97;;;;;;;;;;5014503;28;20049;-66
2022/08/23 12:22:28;;;;;;;4.22;2.58;;;;;;;;;;5038494;28;20038;-66
2022/08/23 12:24:59;;;;;;;4.13;2.53;;;;;;;;;;5044482;28;20137;-66
2022/08/23 12:27:35;;;;;;;5.20;2.37;;;;;;;;;;5030945;28;20049;-66
2022/08/23 12:30:07;;;;;;;5.40;2.25;;;;;;;;;;5036625;28;20045;-65
2022/08/23 12:32:36;;;;;;;6.70;2.97;;;;;;;;;;5037091;28;20037;-65
2022/08/23 12:35:12;;;;;;;5.35;2.60;;;;;;;;;;5032885;28;20081;-65
2022/08/23 12:37:56;;;;;;;10.13;2.55;;;;;;;;;;5031253;28;20041;-65
2022/08/23 12:40:29;;;;;;;8.45;2.25;;;;;;;;;;5036995;28;20038;-65
2022/08/23 12:43:09;;;;;;;6.10;2.58;;;;;;;;;;5037939;28;20047;-66
2022/08/23 12:45:50;;;;;;;4.70;2.28;;;;;;;;;;5038244;28;20034;-65
2022/08/23 12:48:19;;;;;;;5.55;2.58;;;;;;;;;;5016439;28;20091;-67
2022/08/23 12:50:51;;;;;;;6.50;2.85;;;;;;;;;;5047912;28;20036;-66
2022/08/23 12:53:25;;;;;;;5.55;2.72;;;;;;;;;;5028509;28;20042;-66
2022/08/23 12:55:58;;;;;;;3.97;2.20;;;;;;;;;;5050946;28;20048;-66
2022/08/23 12:58:29;;;;;;;6.15;2.20;;;;;;;;;;5022825;28;20045;-66
2022/08/23 13:00:58;;;;;;;4.30;1.85;;;;;;;;;;5034451;28;20079;-66
2022/08/23 13:03:38;;;;;;;5.60;2.75;;;;;;;;;;5027654;28;20045;-67
2022/08/23 13:06:09;;;;;;;4.38;2.10;;;;;;;;;;5030766;28;20687;-67
2022/08/23 13:08:35;;;;;;;4.32;2.25;;;;;;;;;;5047941;28;20137;-68
2022/08/23 13:11:02;;;;;;;6.78;2.20;;;;;;;;;;5019353;28;20033;-67
2022/08/23 13:13:28;;;;;;;4.78;2.00;;;;;;;;;;5030175;28;20042;-67
2022/08/23 13:15:59;;;;;;;3.80;2.15;;;;;;;;;;5047934;28;20049;-66
2022/08/23 13:18:27;;;;;;;4.85;2.22;;;;;;;;;;5039809;28;20046;-67
2022/08/23 13:21:11;;;;;;;7.20;2.33;;;;;;;;;;5035123;28;20384;-68
2022/08/23 13:23:37;;;;;;;5.32;2.03;;;;;;;;;;5035633;28;20034;-67
2022/08/23 13:26:22;;;;;;;5.05;2.20;;;;;;;;;;5020732;28;20562;-65
2022/08/23 13:29:06;;;;;;;6.18;2.35;;;;;;;;;;5037757;28;20041;-67
2022/08/23 13:32:11;;;;;;;6.78;2.25;;;;;;;;;;5049037;28;20033;-68
2022/08/23 13:34:39;;;;;;;5.18;2.10;;;;;;;;;;4964962;28;20046;-68
2022/08/23 13:37:23;;;;;;;6.85;2.30;;;;;;;;;;4961168;28;20106;-67
2022/08/23 13:39:52;;;;;;;4.95;2.30;;;;;;;;;;5015485;28;20045;-67
2022/08/23 13:42:54;;;;;;;4.80;2.55;;;;;;;;;;5043036;28;20049;-65
2022/08/23 13:45:20;;;;;;;5.47;2.95;;;;;;;;;;4960676;28;20050;-65
2022/08/23 13:47:49;;;;;;;7.85;2.58;;;;;;;;;;5031330;28;20412;-65
2022/08/23 13:50:17;;;;;;;8.38;2.67;;;;;;;;;;5045984;28;20037;-64
2022/08/23 13:52:43;;;;;;;4.47;2.33;;;;;;;;;;5034635;28;20040;-64
2022/08/23 13:55:10;;;;;;;2.97;2.58;;;;;;;;;;5040187;28;20036;-64
2022/08/23 13:57:37;;;;;;;6.30;2.67;;;;;;;;;;5027284;28;20043;-65
2022/08/23 14:00:07;;;;;;;6.57;3.28;;;;;;;;;;5042696;28;20071;-65
2022/08/23 14:02:33;;;;;;;7.70;2.58;;;;;;;;;;5043827;28;20044;-65
2022/08/23 14:04:59;;;;;;;7.50;2.60;;;;;;;;;;5041029;28;20076;-65
2022/08/23 14:07:25;;;;;;;6.53;2.30;;;;;;;;;;5044372;28;20414;-65
2022/08/23 14:09:51;;;;;;;6.35;3.20;;;;;;;;;;5047002;28;20079;-65
2022/08/23 14:12:20;;;;;;;5.32;2.53;;;;;;;;;;5054648;28;20034;-65
2022/08/23 14:14:46;;;;;;;4.55;2.45;;;;;;;;;;5054079;28;20094;-65
2022/08/23 14:17:14;;;;;;;6.25;2.75;;;;;;;;;;5042945;28;20105;-65
2022/08/23 14:19:41;;;;;;;10.13;3.67;;;;;;;;;;5046160;28;20507;-65
2022/08/23 14:22:07;;;;;;;9.90;3.20;;;;;;;;;;5045354;28;20049;-65
2022/08/23 14:24:33;;;;;;;6.45;2.75;;;;;;;;;;5034336;28;20098;-65
2022/08/23 14:26:59;;;;;;;7.63;2.50;;;;;;;;;;5034167;28;20038;-65
2022/08/23 14:29:29;;;;;;;5.05;2.58;;;;;;;;;;5042930;28;20111;-65
2022/08/23 14:31:56;;;;;;;4.63;2.60;;;;;;;;;;5044940;28;20044;-65
2022/08/23 14:34:22;;;;;;;8.70;3.00;;;;;;;;;;5041151;28;20531;-65
2022/08/23 14:36:50;;;;;;;7.75;3.45;;;;;;;;;;5044008;28;20036;-65
2022/08/23 14:39:16;;;;;;;6.65;2.90;;;;;;;;;;5042483;28;20042;-65
2022/08/23 14:41:42;;;;;;;5.63;3.35;;;;;;;;;;5033561;28;20046;-65
2022/08/23 14:44:08;;;;;;;5.63;2.75;;;;;;;;;;5033581;28;20484;-65
2022/08/23 14:46:34;;;;;;;7.28;3.00;;;;;;;;;;5033855;28;20491;-65
2022/08/23 14:49:00;;;;;;;5.10;2.40;;;;;;;;;;5033964;28;20041;-65
2022/08/23 14:51:34;;;;;;;5.60;2.67;;;;;;;;;;5051835;28;20033;-65
2022/08/23 14:54:02;;;;;;;8.15;2.60;;;;;;;;;;5053841;28;20365;-65